createdAt,value
2019-02-08T00:01:28.744Z,0.35
2019-02-08T00:03:36.203Z,0.38
2019-02-08T00:05:43.910Z,0.46
2019-02-08T00:07:51.394Z,0.48
2019-02-08T00:09:58.638Z,0.50
2019-02-08T00:12:06.107Z,0.52
2019-02-08T00:14:13.587Z,0.59
2019-02-08T00:16:21.078Z,0.60
2019-02-08T00:18:28.271Z,0.61
2019-02-08T00:20:35.763Z,0.62
2019-02-08T00:22:43.343Z,0.62
2019-02-08T00:24:50.719Z,0.59
2019-02-08T00:26:58.255Z,0.56
2019-02-08T00:29:05.587Z,0.59
2019-02-08T00:31:13.115Z,0.57
2019-02-08T00:33:21.114Z,0.60
2019-02-08T00:35:28.578Z,0.60
2019-02-08T00:37:36.114Z,0.60
2019-02-08T00:39:43.718Z,0.61
2019-02-08T00:41:51.224Z,0.64
2019-02-08T00:43:58.844Z,0.66
2019-02-08T00:46:06.805Z,0.69
2019-02-08T00:48:14.622Z,0.70
2019-02-08T00:50:22.910Z,0.74
2019-02-08T00:52:30.225Z,0.75
2019-02-08T00:54:37.473Z,0.77
2019-02-08T00:56:44.887Z,0.78
2019-02-08T00:58:52.399Z,0.77
2019-02-08T01:00:59.976Z,0.77
2019-02-08T01:03:07.987Z,0.79
2019-02-08T01:05:17.305Z,0.82
2019-02-08T01:07:24.609Z,0.84
2019-02-08T01:09:32.213Z,0.84
2019-02-08T01:11:39.697Z,0.86
2019-02-08T01:13:47.638Z,0.89
2019-02-08T01:15:55.009Z,0.91
2019-02-08T01:18:02.443Z,0.93
2019-02-08T01:20:13.072Z,0.93
2019-02-08T01:22:20.545Z,0.95
2019-02-08T01:24:28.034Z,0.96
2019-02-08T01:26:35.514Z,0.99
2019-02-08T01:28:42.946Z,0.98
2019-02-08T01:30:50.394Z,1.01
2019-02-08T01:32:57.715Z,1.06
2019-02-08T01:35:05.485Z,1.17
2019-02-08T01:37:12.678Z,1.16
2019-02-08T01:39:20.036Z,1.19
2019-02-08T01:41:27.454Z,1.21
2019-02-08T01:43:34.986Z,1.22
2019-02-08T01:45:42.253Z,1.26
2019-02-08T01:47:49.686Z,1.30
2019-02-08T01:49:57.148Z,1.32
2019-02-08T01:52:04.522Z,1.34
2019-02-08T01:54:11.956Z,1.35
2019-02-08T01:56:19.499Z,1.33
2019-02-08T01:58:26.741Z,1.36
2019-02-08T02:00:41.496Z,1.34
2019-02-08T02:02:48.933Z,1.34
2019-02-08T02:04:56.434Z,1.38
2019-02-08T02:07:03.913Z,1.39
2019-02-08T02:09:11.430Z,1.40
2019-02-08T02:11:18.790Z,1.42
2019-02-08T02:13:26.152Z,1.43
2019-02-08T02:15:33.612Z,1.39
2019-02-08T02:17:41.159Z,1.41
2019-02-08T02:19:48.608Z,1.43
2019-02-08T02:21:55.665Z,1.41
2019-02-08T02:24:03.062Z,1.42
2019-02-08T02:26:10.586Z,1.41
2019-02-08T02:28:17.959Z,1.42
2019-02-08T02:30:31.969Z,1.43
2019-02-08T02:32:39.343Z,1.41
2019-02-08T02:34:46.694Z,1.39
2019-02-08T02:36:53.830Z,1.39
2019-02-08T02:39:01.294Z,1.41
2019-02-08T02:41:08.555Z,1.39
2019-02-08T02:43:15.822Z,1.37
2019-02-08T02:45:34.877Z,1.37
2019-02-08T02:47:42.404Z,1.39
2019-02-08T02:49:49.917Z,1.36
2019-02-08T02:51:57.386Z,1.37
2019-02-08T02:54:05.213Z,1.37
2019-02-08T02:56:12.649Z,1.43
2019-02-08T02:58:20.225Z,1.48
2019-02-08T03:00:36.726Z,1.55
2019-02-08T03:02:44.262Z,1.59
2019-02-08T03:04:51.707Z,1.63
2019-02-08T03:06:59.218Z,1.66
2019-02-08T03:09:09.685Z,1.72
2019-02-08T03:11:17.252Z,1.80
2019-02-08T03:13:24.712Z,1.81
2019-02-08T03:15:32.022Z,1.83
2019-02-08T03:17:39.419Z,1.80
2019-02-08T03:19:46.805Z,1.80
2019-02-08T03:21:54.244Z,1.79
2019-02-08T03:24:01.687Z,1.80
2019-02-08T03:26:09.136Z,1.78
2019-02-08T03:28:16.463Z,1.80
2019-02-08T03:30:44.328Z,1.80
2019-02-08T03:32:52.086Z,1.80
2019-02-08T03:34:59.456Z,1.76
2019-02-08T03:37:06.754Z,1.75
2019-02-08T03:39:14.336Z,1.72
2019-02-08T03:41:21.719Z,1.73
2019-02-08T03:43:29.398Z,1.74
2019-02-08T03:45:40.068Z,1.74
2019-02-08T03:47:47.467Z,1.71
2019-02-08T03:49:54.916Z,1.68
2019-02-08T03:52:02.243Z,1.69
2019-02-08T03:54:09.680Z,1.70
2019-02-08T03:56:16.958Z,1.68
2019-02-08T03:58:24.464Z,1.71
2019-02-08T04:00:39.591Z,1.72
2019-02-08T04:02:47.065Z,1.70
2019-02-08T04:04:54.281Z,1.70
2019-02-08T04:07:01.634Z,1.69
2019-02-08T04:09:09.501Z,1.67
2019-02-08T04:11:16.980Z,1.70
2019-02-08T04:13:24.289Z,1.72
2019-02-08T04:15:31.780Z,1.72
2019-02-08T04:17:39.228Z,1.71
2019-02-08T04:19:46.566Z,1.67
2019-02-08T04:21:53.738Z,1.67
2019-02-08T04:24:01.200Z,1.67
2019-02-08T04:26:08.641Z,1.67
2019-02-08T04:28:16.029Z,1.73
2019-02-08T04:30:28.364Z,1.75
2019-02-08T04:32:35.666Z,1.74
2019-02-08T04:34:42.862Z,1.77
2019-02-08T04:36:50.271Z,1.77
2019-02-08T04:38:57.796Z,1.77
2019-02-08T04:41:05.029Z,1.78
2019-02-08T04:43:12.482Z,1.76
2019-02-08T04:45:20.032Z,1.76
2019-02-08T04:47:27.555Z,1.80
2019-02-08T04:49:35.022Z,1.78
2019-02-08T04:51:42.170Z,1.80
2019-02-08T04:53:49.533Z,1.78
2019-02-08T04:55:56.929Z,1.81
2019-02-08T04:58:04.407Z,1.82
2019-02-08T05:00:20.117Z,1.81
2019-02-08T05:02:27.511Z,1.87
2019-02-08T05:04:35.027Z,1.87
2019-02-08T05:06:42.515Z,1.89
2019-02-08T05:08:49.741Z,1.88
2019-02-08T05:10:57.016Z,1.91
2019-02-08T05:13:04.575Z,1.91
2019-02-08T05:15:12.137Z,1.91
2019-02-08T05:17:19.441Z,1.92
2019-02-08T05:19:26.786Z,1.93
2019-02-08T05:21:34.005Z,1.91
2019-02-08T05:23:41.500Z,1.94
2019-02-08T05:25:48.968Z,1.93
2019-02-08T05:27:56.276Z,1.94
2019-02-08T05:30:03.726Z,1.92
2019-02-08T05:32:12.125Z,1.89
2019-02-08T05:34:19.846Z,1.82
2019-02-08T05:36:27.129Z,1.90
2019-02-08T05:38:34.603Z,1.89
2019-02-08T05:40:42.151Z,1.90
2019-02-08T05:42:49.498Z,1.83
2019-02-08T05:44:56.951Z,1.88
2019-02-08T05:47:04.396Z,1.89
2019-02-08T05:49:11.682Z,1.89
2019-02-08T05:51:19.213Z,1.86
2019-02-08T05:53:26.605Z,1.88
2019-02-08T05:55:34.073Z,1.90
2019-02-08T05:57:41.442Z,1.91
2019-02-08T05:59:48.880Z,1.92
2019-02-08T06:01:56.324Z,1.94
2019-02-08T06:04:03.737Z,1.94
2019-02-08T06:06:11.256Z,1.91
2019-02-08T06:08:18.726Z,1.91
2019-02-08T06:10:26.116Z,1.94
2019-02-08T06:12:33.569Z,1.95
2019-02-08T06:14:40.954Z,1.95
2019-02-08T06:16:48.281Z,1.98
2019-02-08T06:18:55.735Z,1.99
2019-02-08T06:21:03.111Z,2.03
2019-02-08T06:23:10.528Z,2.03
2019-02-08T06:25:17.789Z,2.08
2019-02-08T06:27:25.199Z,2.06
2019-02-08T06:29:34.202Z,2.04
2019-02-08T06:31:41.371Z,2.06
2019-02-08T06:33:48.824Z,2.08
2019-02-08T06:35:56.291Z,2.09
2019-02-08T06:38:03.745Z,2.10
2019-02-08T06:40:13.189Z,2.12
2019-02-08T06:42:20.562Z,2.14
2019-02-08T06:44:27.992Z,2.13
2019-02-08T06:46:35.338Z,2.15
2019-02-08T06:48:42.668Z,2.16
2019-02-08T06:50:50.092Z,2.15
2019-02-08T06:52:57.383Z,2.14
2019-02-08T06:55:10.771Z,2.15
2019-02-08T06:57:21.329Z,2.17
2019-02-08T06:59:35.937Z,2.15
2019-02-08T07:02:11.030Z,2.18
2019-02-08T07:04:46.552Z,2.18
2019-02-08T07:07:27.966Z,2.19
2019-02-08T07:09:48.285Z,2.20
2019-02-08T07:12:26.878Z,2.19
2019-02-08T07:15:02.121Z,2.21
2019-02-08T07:17:18.905Z,2.21
2019-02-08T07:19:48.002Z,2.22
2019-02-08T07:22:09.568Z,2.19
2019-02-08T07:24:44.465Z,2.21
2019-02-08T07:27:06.722Z,2.23
2019-02-08T07:29:51.055Z,2.23
2019-02-08T07:32:23.477Z,2.24
2019-02-08T07:35:01.809Z,2.25
2019-02-08T07:37:27.662Z,2.24
2019-02-08T07:39:42.962Z,2.26
2019-02-08T07:42:03.984Z,2.25
2019-02-08T07:44:25.030Z,2.27
2019-02-08T07:46:50.203Z,2.25
2019-02-08T07:49:14.899Z,2.23
2019-02-08T07:51:38.182Z,2.21
2019-02-08T07:54:12.889Z,2.22
2019-02-08T07:56:43.566Z,2.23
2019-02-08T07:59:03.515Z,2.23
2019-02-08T08:01:44.668Z,2.24
2019-02-08T08:04:01.443Z,2.25
2019-02-08T08:06:36.983Z,2.28
2019-02-08T08:09:02.116Z,2.33
2019-02-08T08:11:34.368Z,2.42
2019-02-08T08:14:01.366Z,2.47
2019-02-08T08:16:26.320Z,2.62
2019-02-08T08:18:50.878Z,2.72
2019-02-08T08:21:16.559Z,2.78
2019-02-08T08:23:48.839Z,2.88
2019-02-08T08:26:20.012Z,3.00
2019-02-08T08:28:46.042Z,3.00
2019-02-08T08:31:01.472Z,3.13
2019-02-08T08:33:26.490Z,3.23
2019-02-08T08:36:18.269Z,3.14
2019-02-08T08:39:23.656Z,3.07
2019-02-08T08:42:34.503Z,2.97
2019-02-08T08:45:59.789Z,2.88
2019-02-08T08:49:21.351Z,2.82
2019-02-08T08:52:38.588Z,2.77
2019-02-08T08:55:32.116Z,2.77
2019-02-08T08:58:36.012Z,2.78
2019-02-08T09:01:59.480Z,2.83
2019-02-08T09:05:00.500Z,2.88
2019-02-08T09:08:22.310Z,2.99
2019-02-08T09:11:24.534Z,3.11
2019-02-08T09:14:21.750Z,3.20
2019-02-08T09:17:47.717Z,3.25
2019-02-08T09:20:53.533Z,3.29
2019-02-08T09:23:43.306Z,3.37
2019-02-08T09:27:02.064Z,3.58
2019-02-08T09:30:24.947Z,3.71
2019-02-08T09:33:33.651Z,3.84
2019-02-08T09:36:32.135Z,3.83
2019-02-08T09:39:46.113Z,3.83
2019-02-08T09:42:40.575Z,3.94
2019-02-08T09:45:53.661Z,3.95
2019-02-08T09:48:59.693Z,4.19
2019-02-08T09:52:02.966Z,4.32
2019-02-08T09:55:13.166Z,4.20
2019-02-08T09:58:21.139Z,4.18
2019-02-08T10:01:10.773Z,4.11
2019-02-08T10:04:04.156Z,4.12
2019-02-08T10:07:11.070Z,4.40
2019-02-08T10:10:33.054Z,4.62
2019-02-08T10:14:11.090Z,4.84
2019-02-08T10:17:26.891Z,4.68
2019-02-08T10:20:37.440Z,4.80
2019-02-08T10:23:51.908Z,4.65
2019-02-08T10:26:59.789Z,4.85
2019-02-08T10:30:15.881Z,4.84
2019-02-08T10:33:09.975Z,4.69
2019-02-08T10:36:24.979Z,4.71
2019-02-08T10:39:48.256Z,4.91
2019-02-08T10:42:59.481Z,4.98
2019-02-08T10:46:15.356Z,5.44
2019-02-08T10:49:13.421Z,5.42
2019-02-08T10:52:43.772Z,5.46
2019-02-08T10:56:14.921Z,5.32
2019-02-08T10:59:38.954Z,5.43
2019-02-08T11:03:00.257Z,5.25
2019-02-08T11:06:07.994Z,5.39
2019-02-08T11:09:35.449Z,5.49
2019-02-08T11:12:52.615Z,5.44
2019-02-08T11:16:13.012Z,5.50
2019-02-08T11:19:22.541Z,5.65
2019-02-08T11:21:30.004Z,5.56
2019-02-08T11:23:37.579Z,5.90
2019-02-08T11:25:45.286Z,5.74
2019-02-08T11:27:53.029Z,5.64
2019-02-08T11:30:01.024Z,5.75
2019-02-08T11:32:08.488Z,5.78
2019-02-08T11:34:15.964Z,5.83
2019-02-08T11:36:23.394Z,6.06
2019-02-08T11:38:30.911Z,6.01
2019-02-08T11:40:38.366Z,6.16
2019-02-08T11:42:45.950Z,6.15
2019-02-08T11:44:53.545Z,6.21
2019-02-08T11:47:00.993Z,6.03
2019-02-08T11:49:08.564Z,6.03
2019-02-08T11:51:16.084Z,5.90
2019-02-08T11:53:23.604Z,6.34
2019-02-08T11:55:31.140Z,6.16
2019-02-08T11:57:38.657Z,6.10
2019-02-08T11:59:46.046Z,6.21
2019-02-08T12:01:53.436Z,6.26
2019-02-08T12:04:00.983Z,6.10
2019-02-08T12:06:08.480Z,6.07
2019-02-08T12:08:15.954Z,6.21
2019-02-08T12:10:23.481Z,6.09
2019-02-08T12:12:31.041Z,6.10
2019-02-08T12:14:38.618Z,6.24
2019-02-08T12:16:46.147Z,6.38
2019-02-08T12:18:53.667Z,6.32
2019-02-08T12:21:01.120Z,6.43
2019-02-08T12:23:08.663Z,6.50
2019-02-08T12:25:16.292Z,6.62
2019-02-08T12:27:23.707Z,6.66
2019-02-08T12:29:31.078Z,6.53
2019-02-08T12:31:38.389Z,6.45
2019-02-08T12:33:45.950Z,6.31
2019-02-08T12:35:53.444Z,6.35
2019-02-08T12:38:00.950Z,6.42
2019-02-08T12:40:09.443Z,6.69
2019-02-08T12:42:16.969Z,6.61
2019-02-08T12:44:24.387Z,6.58
2019-02-08T12:46:31.953Z,6.51
2019-02-08T12:48:39.435Z,6.51
2019-02-08T12:50:46.826Z,6.65
2019-02-08T12:52:54.279Z,6.71
2019-02-08T12:55:01.778Z,6.68
2019-02-08T12:57:09.137Z,6.50
2019-02-08T12:59:16.321Z,6.56
2019-02-08T13:01:23.669Z,6.47
2019-02-08T13:03:31.117Z,6.45
2019-02-08T13:05:38.559Z,6.50
2019-02-08T13:07:46.031Z,6.44
2019-02-08T13:09:53.482Z,6.39
2019-02-08T13:12:00.983Z,6.37
2019-02-08T13:14:08.695Z,6.41
2019-02-08T13:16:16.112Z,6.32
2019-02-08T13:18:23.366Z,6.37
2019-02-08T13:20:30.908Z,6.39
2019-02-08T13:22:38.233Z,6.30
2019-02-08T13:24:45.622Z,6.26
2019-02-08T13:26:53.235Z,6.31
2019-02-08T13:29:00.612Z,6.30
2019-02-08T13:31:08.123Z,6.29
2019-02-08T13:33:16.526Z,6.35
2019-02-08T13:35:24.280Z,6.35
2019-02-08T13:37:31.595Z,6.30
2019-02-08T13:39:39.231Z,6.33
2019-02-08T13:41:46.652Z,6.38
2019-02-08T13:43:54.155Z,6.38
2019-02-08T13:46:01.660Z,6.37
2019-02-08T13:48:09.153Z,6.35
2019-02-08T13:50:22.473Z,6.37
2019-02-08T13:52:29.932Z,6.35
2019-02-08T13:54:37.212Z,6.31
2019-02-08T13:56:44.807Z,6.29
2019-02-08T13:58:52.299Z,6.21
2019-02-08T14:00:59.955Z,6.17
2019-02-08T14:03:08.484Z,6.14
2019-02-08T14:05:15.965Z,6.11
2019-02-08T14:07:23.470Z,6.00
2019-02-08T14:09:30.874Z,6.00
2019-02-08T14:11:38.491Z,5.96
2019-02-08T14:13:45.973Z,5.97
2019-02-08T14:15:53.460Z,5.94
2019-02-08T14:18:00.941Z,5.91
2019-02-08T14:20:10.736Z,5.88
2019-02-08T14:22:18.126Z,5.85
2019-02-08T14:24:25.675Z,5.78
2019-02-08T14:26:32.917Z,5.78
2019-02-08T14:28:40.568Z,5.74
2019-02-08T14:30:47.973Z,5.74
2019-02-08T14:32:55.965Z,5.69
2019-02-08T14:35:03.762Z,5.67
2019-02-08T14:37:10.996Z,5.67
2019-02-08T14:39:18.443Z,5.62
2019-02-08T14:41:25.951Z,5.61
2019-02-08T14:43:33.516Z,5.57
2019-02-08T14:45:41.088Z,5.55
2019-02-08T14:47:48.647Z,5.54
2019-02-08T14:49:56.098Z,5.48
2019-02-08T14:52:03.572Z,5.40
2019-02-08T14:54:10.989Z,5.42
2019-02-08T14:56:18.237Z,5.40
2019-02-08T14:58:25.690Z,5.30
2019-02-08T15:00:33.208Z,5.27
2019-02-08T15:02:40.555Z,5.24
2019-02-08T15:04:47.966Z,5.21
2019-02-08T15:06:55.435Z,5.15
2019-02-08T15:09:02.913Z,5.14
2019-02-08T15:11:10.282Z,5.06
2019-02-08T15:13:17.825Z,5.05
2019-02-08T15:15:25.345Z,4.98
2019-02-08T15:17:32.868Z,4.90
2019-02-08T15:19:40.199Z,4.81
2019-02-08T15:21:47.713Z,4.74
2019-02-08T15:23:56.543Z,4.68
2019-02-08T15:26:03.860Z,4.61
2019-02-08T15:28:11.369Z,4.61
2019-02-08T15:30:22.315Z,4.61
2019-02-08T15:32:29.748Z,4.54
2019-02-08T15:34:37.337Z,4.50
2019-02-08T15:36:49.387Z,4.47
2019-02-08T15:38:54.022Z,4.37
2019-02-08T15:41:01.514Z,4.30
2019-02-08T15:43:09.473Z,4.25
2019-02-08T15:45:19.239Z,4.25
2019-02-08T15:47:26.860Z,4.14
2019-02-08T15:49:34.416Z,4.20
2019-02-08T15:51:41.979Z,4.10
2019-02-08T15:53:49.491Z,4.11
2019-02-08T15:56:01.944Z,4.00
2019-02-08T15:58:09.727Z,3.95
2019-02-08T16:00:21.111Z,3.90
2019-02-08T16:02:28.633Z,3.90
2019-02-08T16:04:36.039Z,3.81
2019-02-08T16:06:43.612Z,3.77
2019-02-08T16:08:51.294Z,3.81
2019-02-08T16:10:58.724Z,3.76
2019-02-08T16:13:06.158Z,3.71
2019-02-08T16:15:21.042Z,3.69
2019-02-08T16:17:28.461Z,3.68
2019-02-08T16:19:36.007Z,3.58
2019-02-08T16:21:43.582Z,3.57
2019-02-08T16:23:50.976Z,3.55
2019-02-08T16:25:58.348Z,3.43
2019-02-08T16:28:05.850Z,3.43
2019-02-08T16:30:19.411Z,3.45
2019-02-08T16:32:26.864Z,3.40
2019-02-08T16:34:34.406Z,3.43
2019-02-08T16:36:41.975Z,3.38
2019-02-08T16:38:49.424Z,3.37
2019-02-08T16:40:57.073Z,3.30
2019-02-08T16:43:05.929Z,3.32
2019-02-08T16:45:35.377Z,3.24
2019-02-08T16:47:42.820Z,3.17
2019-02-08T16:49:50.348Z,3.19
2019-02-08T16:51:57.774Z,3.17
2019-02-08T16:54:05.516Z,3.12
2019-02-08T16:56:12.971Z,3.12
2019-02-08T16:58:20.647Z,3.02
2019-02-08T17:00:30.868Z,3.08
2019-02-08T17:02:38.444Z,2.99
2019-02-08T17:04:46.084Z,3.01
2019-02-08T17:06:53.459Z,2.99
2019-02-08T17:09:00.839Z,2.89
2019-02-08T17:11:08.601Z,2.99
2019-02-08T17:13:15.879Z,2.93
2019-02-08T17:15:25.037Z,2.92
2019-02-08T17:17:32.491Z,2.87
2019-02-08T17:19:40.019Z,2.83
2019-02-08T17:21:48.471Z,2.80
2019-02-08T17:23:56.214Z,2.78
2019-02-08T17:26:04.157Z,2.74
2019-02-08T17:28:12.740Z,2.74
2019-02-08T17:30:20.332Z,2.79
2019-02-08T17:32:28.501Z,2.71
2019-02-08T17:34:36.911Z,2.70
2019-02-08T17:36:45.120Z,2.65
2019-02-08T17:38:53.403Z,2.68
2019-02-08T17:41:01.872Z,2.68
2019-02-08T17:43:09.635Z,2.64
2019-02-08T17:45:20.407Z,2.65
2019-02-08T17:47:28.294Z,2.59
2019-02-08T17:49:36.085Z,2.60
2019-02-08T17:51:43.883Z,2.57
2019-02-08T17:53:51.411Z,2.55
2019-02-08T17:55:58.879Z,2.56
2019-02-08T17:58:06.412Z,2.58
2019-02-08T18:00:31.190Z,2.52
2019-02-08T18:02:38.919Z,2.53
2019-02-08T18:04:46.491Z,2.43
2019-02-08T18:06:54.342Z,2.39
2019-02-08T18:09:02.017Z,2.37
2019-02-08T18:11:09.426Z,2.37
2019-02-08T18:13:18.646Z,2.34
2019-02-08T18:15:26.291Z,2.31
2019-02-08T18:17:33.948Z,2.37
2019-02-08T18:19:41.626Z,2.28
2019-02-08T18:21:49.167Z,2.35
2019-02-08T18:23:56.873Z,2.25
2019-02-08T18:26:04.310Z,2.33
2019-02-08T18:28:11.758Z,2.24
2019-02-08T18:30:20.540Z,2.21
2019-02-08T18:32:28.118Z,2.20
2019-02-08T18:34:35.801Z,2.12
2019-02-08T18:36:44.484Z,2.12
2019-02-08T18:38:52.083Z,2.09
2019-02-08T18:40:59.570Z,2.00
2019-02-08T18:43:07.084Z,1.97
2019-02-08T18:45:21.391Z,1.97
2019-02-08T18:47:28.851Z,1.97
2019-02-08T18:49:36.522Z,1.96
2019-02-08T18:51:44.230Z,2.01
2019-02-08T18:53:51.760Z,2.05
2019-02-08T18:55:59.333Z,1.98
2019-02-08T18:58:07.171Z,1.95
2019-02-08T19:00:19.830Z,1.95
2019-02-08T19:02:27.559Z,1.94
2019-02-08T19:04:35.266Z,1.84
2019-02-08T19:06:42.891Z,1.88
2019-02-08T19:08:50.867Z,1.83
2019-02-08T19:10:58.606Z,1.79
2019-02-08T19:13:06.152Z,1.81
2019-02-08T19:15:15.505Z,1.72
2019-02-08T19:17:23.005Z,1.80
2019-02-08T19:19:30.819Z,1.71
2019-02-08T19:21:38.300Z,1.76
2019-02-08T19:23:45.956Z,1.64
2019-02-08T19:25:53.425Z,1.58
2019-02-08T19:28:01.208Z,1.55
2019-02-08T19:30:13.527Z,1.48
2019-02-08T19:32:21.045Z,1.34
2019-02-08T19:34:28.547Z,1.29
2019-02-08T19:36:36.137Z,1.20
2019-02-08T19:38:43.607Z,1.06
2019-02-08T19:40:51.254Z,1.11
2019-02-08T19:42:59.027Z,1.03
2019-02-08T19:45:09.366Z,0.97
2019-02-08T19:47:17.130Z,0.93
2019-02-08T19:49:24.770Z,0.92
2019-02-08T19:51:32.605Z,0.90
2019-02-08T19:53:40.343Z,0.80
2019-02-08T19:55:48.050Z,0.78
2019-02-08T19:57:55.565Z,0.73
2019-02-08T20:00:03.241Z,0.61
2019-02-08T20:02:10.902Z,0.54
2019-02-08T20:04:18.489Z,0.55
2019-02-08T20:06:25.796Z,0.54
2019-02-08T20:08:34.584Z,0.51
2019-02-08T20:10:44.277Z,0.44
2019-02-08T20:12:51.741Z,0.49
2019-02-08T20:14:59.324Z,0.40
2019-02-08T20:17:06.967Z,0.46
2019-02-08T20:19:14.429Z,0.39
2019-02-08T20:21:22.538Z,0.34
2019-02-08T20:23:30.091Z,0.34
2019-02-08T20:25:38.308Z,0.31
2019-02-08T20:27:45.936Z,0.31
2019-02-08T20:29:53.637Z,0.26
2019-02-08T20:32:01.196Z,0.27
2019-02-08T20:34:08.605Z,0.23
2019-02-08T20:36:15.937Z,0.18
2019-02-08T20:38:23.649Z,0.16
2019-02-08T20:40:34.156Z,0.15
2019-02-08T20:42:41.729Z,0.22
2019-02-08T20:44:49.487Z,0.14
2019-02-08T20:46:57.084Z,0.20
2019-02-08T20:49:04.946Z,0.20
2019-02-08T20:51:13.910Z,0.18
2019-02-08T20:53:21.682Z,0.26
2019-02-08T20:55:29.726Z,0.30
2019-02-08T20:57:37.084Z,0.34
2019-02-08T20:59:44.779Z,0.42
2019-02-08T21:01:52.332Z,0.32
2019-02-08T21:03:59.913Z,0.44
2019-02-08T21:06:07.969Z,0.47
2019-02-08T21:08:16.290Z,0.50
2019-02-08T21:10:24.012Z,0.51
2019-02-08T21:12:31.791Z,0.50
2019-02-08T21:14:40.308Z,0.46
2019-02-08T21:16:48.306Z,0.49
2019-02-08T21:18:56.521Z,0.53
2019-02-08T21:21:03.939Z,0.53
2019-02-08T21:23:13.331Z,0.49
2019-02-08T21:25:24.192Z,0.40
2019-02-08T21:27:32.529Z,0.29
2019-02-08T21:29:40.326Z,0.33
2019-02-08T21:31:47.799Z,0.37
2019-02-08T21:33:55.280Z,0.40
2019-02-08T21:36:02.808Z,0.49
2019-02-08T21:38:11.005Z,0.57
2019-02-08T21:40:20.283Z,0.48
2019-02-08T21:42:27.776Z,0.61
2019-02-08T21:44:35.511Z,0.60
2019-02-08T21:46:43.220Z,0.50
2019-02-08T21:48:50.743Z,0.55
2019-02-08T21:50:58.439Z,0.54
2019-02-08T21:53:06.158Z,0.54
2019-02-08T21:55:14.960Z,0.50
2019-02-08T21:57:23.530Z,0.52
2019-02-08T21:59:30.949Z,0.47
2019-02-08T22:01:38.598Z,0.40
2019-02-08T22:03:46.146Z,0.42
2019-02-08T22:06:06.031Z,0.51
2019-02-08T22:08:13.498Z,0.48
2019-02-08T22:10:21.037Z,0.48
2019-02-08T22:12:28.468Z,0.48
2019-02-08T22:14:36.107Z,0.47
2019-02-08T22:16:43.563Z,0.51
2019-02-08T22:18:51.250Z,0.50
2019-02-08T22:20:59.842Z,0.55
2019-02-08T22:23:10.747Z,0.55
2019-02-08T22:25:19.234Z,0.37
2019-02-08T22:27:26.709Z,0.30
2019-02-08T22:29:34.218Z,0.24
2019-02-08T22:31:41.729Z,0.30
2019-02-08T22:33:49.180Z,0.18
2019-02-08T22:35:56.791Z,0.13
2019-02-08T22:38:04.141Z,0.21
2019-02-08T22:40:15.013Z,0.14
2019-02-08T22:42:22.435Z,0.14
2019-02-08T22:45:08.348Z,0.22
2019-02-08T22:47:07.511Z,0.10
2019-02-08T22:49:14.943Z,-0.05
2019-02-08T22:51:22.444Z,-0.09
2019-02-08T22:53:29.886Z,-0.15
2019-02-08T22:55:37.419Z,-0.19
2019-02-08T22:57:44.889Z,-0.22
2019-02-08T22:59:52.315Z,-0.28
2019-02-08T23:01:59.846Z,-0.31
2019-02-08T23:04:08.589Z,-0.43
2019-02-08T23:06:16.182Z,-0.39
2019-02-08T23:08:23.606Z,-0.39
2019-02-08T23:10:30.975Z,-0.52
2019-02-08T23:12:38.584Z,-0.51
2019-02-08T23:14:46.001Z,-0.47
2019-02-08T23:16:53.415Z,-0.50
2019-02-08T23:19:01.127Z,-0.51
2019-02-08T23:21:08.973Z,-0.49
2019-02-08T23:23:16.535Z,-0.42
2019-02-08T23:25:24.024Z,-0.42
2019-02-08T23:27:31.419Z,-0.36
2019-02-08T23:29:38.722Z,-0.36
2019-02-08T23:31:46.282Z,-0.32
2019-02-08T23:33:53.823Z,-0.22
2019-02-08T23:36:01.285Z,-0.16
2019-02-08T23:38:09.321Z,-0.33
2019-02-08T23:40:16.984Z,-0.15
2019-02-08T23:42:24.300Z,-0.06
2019-02-08T23:44:31.862Z,-0.16
2019-02-08T23:46:39.359Z,0.02
2019-02-08T23:48:46.885Z,0.01
2019-02-08T23:50:54.449Z,-0.05
2019-02-08T23:53:01.787Z,-0.01
2019-02-08T23:55:09.335Z,0.06
2019-02-08T23:57:16.867Z,0.09
2019-02-08T23:59:24.401Z,-0.03
